Time;durP1;ratioP1;P1;durP2;ratioP2;P2;SDS_P1;SDS_P2;PMS_P1;PMS_P2;Temp;Humidity;BMP_temperature;BMP_pressure;BME280_temperature;BME280_humidity;BME280_pressure;Samples;Min_cycle;Max_cycle;Signal;HPM_P1;HPM_P2
2023/02/27 00:00:18;;;;;;;2.15;0.80;;;;;;;10.01;34.71;102491.50;4978855;28;20030;-63
2023/02/27 00:02:45;;;;;;;2.58;1.00;;;;;;;10.01;35.02;102498.66;4979562;28;20397;-62
2023/02/27 00:05:11;;;;;;;0.90;0.60;;;;;;;9.99;35.23;102490.72;4978727;28;20038;-62
2023/02/27 00:07:36;;;;;;;2.10;0.93;;;;;;;9.97;34.97;102497.94;4962541;28;20104;-62
2023/02/27 00:10:02;;;;;;;3.80;1.00;;;;;;;9.95;34.28;102508.75;4979018;28;20145;-61
2023/02/27 00:12:29;;;;;;;1.77;0.98;;;;;;;9.94;34.76;102512.38;4994883;28;20038;-61
2023/02/27 00:14:54;;;;;;;0.90;0.88;;;;;;;9.90;34.58;102505.47;4996624;28;20073;-62
2023/02/27 00:17:20;;;;;;;4.13;0.93;;;;;;;9.88;35.16;102504.66;4978655;28;20521;-61
2023/02/27 00:19:45;;;;;;;0.82;0.60;;;;;;;9.88;34.76;102512.69;4994214;28;20058;-62
2023/02/27 00:22:11;;;;;;;1.08;0.70;;;;;;;9.84;35.50;102511.16;4978727;28;20196;-62
2023/02/27 00:24:36;;;;;;;1.92;0.93;;;;;;;9.84;35.09;102511.16;4962494;28;20057;-62
2023/02/27 00:27:01;;;;;;;1.92;1.30;;;;;;;9.82;35.55;102505.03;4979084;28;20132;-62
2023/02/27 00:29:27;;;;;;;2.80;0.95;;;;;;;9.81;34.49;102503.28;4995634;28;20033;-62
2023/02/27 00:31:53;;;;;;;4.35;0.75;;;;;;;9.80;35.17;102517.59;4962393;28;20034;-61
2023/02/27 00:34:18;;;;;;;1.70;1.00;;;;;;;9.79;35.30;102509.69;4995760;28;20062;-62
2023/02/27 00:36:43;;;;;;;2.58;0.70;;;;;;;9.77;34.85;102514.25;4994728;28;20173;-62
2023/02/27 00:39:09;;;;;;;0.88;0.40;;;;;;;9.75;35.05;102511.66;4996037;28;20393;-62
2023/02/27 00:41:34;;;;;;;4.18;0.88;;;;;;;9.73;35.10;102513.56;4978341;28;20037;-62
2023/02/27 00:43:59;;;;;;;9.27;0.80;;;;;;;9.73;35.26;102518.91;4977432;28;20060;-62
2023/02/27 00:46:25;;;;;;;8.27;0.90;;;;;;;9.70;34.91;102516.38;4994565;28;20038;-62
2023/02/27 00:48:50;;;;;;;4.75;1.38;;;;;;;9.65;35.67;102510.41;4978008;28;20109;-61
2023/02/27 00:51:18;;;;;;;1.55;0.60;;;;;;;9.67;34.79;102511.19;4994403;28;20037;-64
2023/02/27 00:53:44;;;;;;;3.40;1.15;;;;;;;9.61;35.73;102506.16;4981290;28;20042;-62
2023/02/27 00:56:09;;;;;;;7.85;0.77;;;;;;;9.61;35.12;102503.50;4983788;28;20034;-61
2023/02/27 00:58:35;;;;;;;1.50;0.70;;;;;;;9.55;35.47;102500.31;4999319;28;20049;-62
2023/02/27 01:01:00;;;;;;;2.97;0.98;;;;;;;9.59;35.49;102504.53;4996611;28;20034;-62
2023/02/27 01:03:26;;;;;;;0.77;0.60;;;;;;;9.55;35.51;102503.81;4994084;28;20030;-62
2023/02/27 01:05:51;;;;;;;6.13;0.80;;;;;;;9.50;35.43;102505.88;4962056;28;20125;-62
2023/02/27 01:08:16;;;;;;;2.58;0.73;;;;;;;9.51;35.11;102507.63;4977920;28;20031;-62
2023/02/27 01:10:42;;;;;;;2.10;0.90;;;;;;;9.47;35.09;102500.69;4977798;28;20038;-62
2023/02/27 01:13:08;;;;;;;4.85;1.48;;;;;;;9.44;35.51;102500.84;4977605;28;20129;-62
2023/02/27 01:15:33;;;;;;;7.85;1.10;;;;;;;9.43;35.46;102500.94;4977671;28;20036;-62
2023/02/27 01:17:58;;;;;;;6.57;1.00;;;;;;;9.40;35.37;102504.63;4978014;28;20129;-62
2023/02/27 01:20:24;;;;;;;1.63;0.70;;;;;;;9.38;35.16;102504.72;4977684;28;20030;-62
2023/02/27 01:22:49;;;;;;;4.57;1.10;;;;;;;9.35;35.35;102509.38;4961212;28;20561;-62
2023/02/27 01:25:15;;;;;;;1.63;0.90;;;;;;;9.30;34.91;102504.25;4977555;28;20035;-62
2023/02/27 01:27:40;;;;;;;3.65;0.68;;;;;;;9.26;35.67;102505.38;4977310;28;20118;-62
2023/02/27 01:30:06;;;;;;;4.47;0.80;;;;;;;9.26;35.58;102507.16;4977830;28;20375;-62
2023/02/27 01:32:31;;;;;;;3.80;1.05;;;;;;;9.23;35.50;102512.66;4994746;28;20038;-62
2023/02/27 01:34:57;;;;;;;1.98;0.68;;;;;;;9.22;35.72;102508.25;4977231;28;20061;-62
2023/02/27 01:37:22;;;;;;;0.75;0.70;;;;;;;9.21;35.12;102501.19;5011542;28;20029;-62
2023/02/27 01:39:47;;;;;;;6.30;0.93;;;;;;;9.15;35.29;102497.03;4998346;28;20108;-62
2023/02/27 01:42:23;;;;;;;2.38;1.02;;;;;;;9.18;35.47;102504.03;4964622;28;20033;-62
2023/02/27 01:45:10;;;;;;;3.22;0.70;;;;;;;9.15;35.98;102505.06;5012406;28;20052;-61
2023/02/27 01:47:40;;;;;;;5.57;1.60;;;;;;;9.12;35.52;102505.22;4975004;28;20146;-62
2023/02/27 01:50:07;;;;;;;2.60;0.88;;;;;;;9.12;36.01;102499.00;4968284;28;20402;-62
2023/02/27 01:52:33;;;;;;;2.70;0.77;;;;;;;9.09;36.07;102500.03;4993324;28;20041;-62
2023/02/27 01:54:59;;;;;;;3.22;1.10;;;;;;;9.07;35.25;102501.03;4976827;28;20033;-62
2023/02/27 01:57:25;;;;;;;3.28;0.82;;;;;;;9.06;35.52;102504.66;4976868;28;20022;-62
2023/02/27 01:59:51;;;;;;;2.00;1.45;;;;;;;9.01;35.33;102504.03;4993397;28;20053;-62
2023/02/27 02:02:22;;;;;;;3.63;0.80;;;;;;;9.02;35.49;102509.28;4976874;28;20131;-61
2023/02/27 02:04:49;;;;;;;1.65;0.73;;;;;;;8.99;35.38;102503.25;4976766;28;20156;-62
2023/02/27 02:07:16;;;;;;;2.58;0.80;;;;;;;8.98;36.50;102506.84;4976501;28;20030;-62
2023/02/27 02:09:50;;;;;;;4.85;1.48;;;;;;;8.94;35.85;102503.47;4976580;28;20030;-61
2023/02/27 02:12:17;;;;;;;1.65;1.05;;;;;;;8.94;35.84;102506.13;4976692;28;20034;-63
2023/02/27 02:14:43;;;;;;;3.30;0.80;;;;;;;8.92;35.72;102504.47;4993234;28;20034;-62
2023/02/27 02:17:39;;;;;;;2.45;1.17;;;;;;;8.90;35.99;102504.56;4984568;28;20038;-62
2023/02/27 02:20:19;;;;;;;1.60;1.00;;;;;;;8.87;36.74;102498.50;5012319;28;20131;-62
2023/02/27 02:23:07;;;;;;;2.58;1.17;;;;;;;8.82;36.48;102498.75;5013456;28;20068;-62
2023/02/27 02:26:00;;;;;;;4.28;1.02;;;;;;;8.79;36.31;102504.25;5013543;28;20437;-62
2023/02/27 02:29:04;;;;;;;3.70;0.70;;;;;;;8.76;36.36;102502.59;5013296;28;20057;-62
2023/02/27 02:31:48;;;;;;;;;;;;;;;8.73;35.85;102502.75;4992239;28;20404;-62
2023/02/27 02:34:41;;;;;;;2.85;0.95;;;;;;;8.71;36.79;102504.59;5011986;28;19920;-62
2023/02/27 02:37:39;;;;;;;3.80;0.60;;;;;;;8.69;36.50;102511.84;5013141;28;20498;-62
2023/02/27 02:40:23;;;;;;;1.77;0.90;;;;;;;8.68;36.31;102504.75;5006555;28;20084;-62
2023/02/27 02:42:54;;;;;;;4.13;1.10;;;;;;;8.66;36.01;102506.66;5012760;28;20482;-62
2023/02/27 02:45:34;;;;;;;1.20;1.10;;;;;;;8.66;35.51;102509.31;5011836;28;20117;-62
2023/02/27 02:48:05;;;;;;;3.72;0.90;;;;;;;8.64;35.93;102508.53;5013121;28;20040;-63
2023/02/27 02:50:40;;;;;;;4.85;1.33;;;;;;;8.63;36.67;102504.13;5026768;28;20054;-62
2023/02/27 02:53:30;;;;;;;3.60;1.23;;;;;;;8.63;37.03;102503.25;5031580;28;20046;-62
2023/02/27 02:56:06;;;;;;;1.75;1.10;;;;;;;8.62;36.60;102510.44;4998724;28;20048;-62
2023/02/27 02:58:55;;;;;;;0.90;0.88;;;;;;;8.58;36.61;102507.97;5015288;28;20092;-62
2023/02/27 03:01:25;;;;;;;5.43;1.25;;;;;;;8.57;36.86;102512.44;5014778;28;20044;-62
2023/02/27 03:03:54;;;;;;;0.98;0.82;;;;;;;8.57;37.11;102516.94;5015112;28;20029;-62
2023/02/27 03:06:51;;;;;;;1.25;0.80;;;;;;;8.57;36.71;102501.75;5014951;28;20105;-62
2023/02/27 03:09:27;;;;;;;2.90;0.88;;;;;;;8.58;36.78;102514.19;4994633;28;20045;-62
2023/02/27 03:11:55;;;;;;;1.50;0.57;;;;;;;8.54;36.62;102506.41;5012147;28;20109;-62
2023/02/27 03:15:01;;;;;;;1.67;0.88;;;;;;;8.49;36.63;102492.38;4995186;28;20041;-62
2023/02/27 03:17:36;;;;;;;2.63;1.00;;;;;;;8.54;36.80;102517.91;5012681;28;20045;-61
2023/02/27 03:20:05;;;;;;;6.72;1.02;;;;;;;8.52;37.17;102509.13;4995512;28;20544;-61
2023/02/27 03:22:34;;;;;;;4.43;1.52;;;;;;;8.52;36.00;102519.81;4995166;28;20042;-61
2023/02/27 03:25:02;;;;;;;0.90;0.70;;;;;;;8.50;36.06;102524.38;4995236;28;20046;-62
2023/02/27 03:27:32;;;;;;;1.60;1.30;;;;;;;8.49;37.29;102530.63;4995212;28;20041;-61
2023/02/27 03:30:07;;;;;;;1.60;1.05;;;;;;;8.48;36.32;102522.72;4995906;28;20113;-62
2023/02/27 03:32:41;;;;;;;1.95;0.82;;;;;;;8.46;37.33;102525.44;4995362;28;20033;-62
2023/02/27 03:35:08;;;;;;;4.18;1.13;;;;;;;8.44;36.31;102527.34;4995370;28;20060;-61
2023/02/27 03:37:59;;;;;;;1.75;0.90;;;;;;;8.42;36.42;102534.56;4995177;28;20413;-62
2023/02/27 03:40:38;;;;;;;1.27;1.02;;;;;;;8.40;36.39;102535.56;4993018;28;20041;-61
2023/02/27 03:43:45;;;;;;;4.05;1.00;;;;;;;8.37;36.85;102536.59;4978818;28;20038;-62
2023/02/27 03:46:17;;;;;;;4.88;1.33;;;;;;;8.36;37.35;102542.84;4998846;28;20577;-62
2023/02/27 03:48:44;;;;;;;3.22;1.15;;;;;;;8.34;37.10;102538.53;5010903;28;20528;-62
2023/02/27 03:51:13;;;;;;;0.98;0.70;;;;;;;8.32;37.70;102537.75;4996072;28;20540;-62
2023/02/27 03:53:55;;;;;;;1.42;0.95;;;;;;;8.30;37.39;102544.94;4992943;28;20042;-61
2023/02/27 03:56:24;;;;;;;1.15;0.80;;;;;;;8.27;37.03;102553.06;4994469;28;20038;-62
2023/02/27 03:58:50;;;;;;;3.47;1.00;;;;;;;8.26;37.11;102554.88;4979037;28;20165;-61
2023/02/27 04:01:16;;;;;;;1.77;1.00;;;;;;;8.24;36.77;102556.72;4978843;28;20516;-62
2023/02/27 04:03:48;;;;;;;2.58;0.98;;;;;;;8.23;37.65;102561.19;4979228;28;20058;-62
2023/02/27 04:09:10;;;;;;;1.38;1.13;;;;;;;8.21;37.16;102562.22;4996364;28;20049;-62
2023/02/27 04:12:14;;;;;;;1.95;1.15;;;;;;;8.17;37.36;102565.97;4978759;28;20045;-62
2023/02/27 04:14:45;;;;;;;1.65;0.95;;;;;;;8.16;36.35;102569.56;4946634;28;20101;-62
2023/02/27 04:17:16;;;;;;;1.65;1.13;;;;;;;8.16;36.73;102566.91;4996291;28;20121;-62
2023/02/27 04:20:04;;;;;;;1.80;0.98;;;;;;;8.15;36.60;102573.19;4996156;28;20035;-61
2023/02/27 04:22:47;;;;;;;3.33;1.35;;;;;;;8.13;37.26;102569.72;4980881;28;20045;-61
2023/02/27 04:25:19;;;;;;;;;;;;;;;8.11;37.50;102576.94;4996437;28;20035;-62
2023/02/27 04:27:44;;;;;;;1.85;1.40;;;;;;;8.09;37.49;102576.16;4995882;28;19918;-62
2023/02/27 04:30:24;;;;;;;3.28;0.82;;;;;;;8.08;36.95;102579.75;4995397;28;20034;-61
2023/02/27 04:33:22;;;;;;;4.05;1.17;;;;;;;8.04;37.00;102571.00;4978563;28;20395;-62
2023/02/27 04:35:50;;;;;;;5.20;1.45;;;;;;;8.03;36.28;102576.44;4994884;28;20070;-63
2023/02/27 04:38:29;;;;;;;1.88;1.23;;;;;;;7.99;36.63;102577.47;4995721;28;20043;-62
2023/02/27 04:40:58;;;;;;;2.78;1.25;;;;;;;7.95;36.85;102573.25;4994551;28;20093;-62
2023/02/27 04:43:25;;;;;;;2.78;1.10;;;;;;;7.95;36.76;102573.25;4962054;28;20417;-62
2023/02/27 04:45:52;;;;;;;1.50;1.20;;;;;;;7.92;36.80;102584.91;4978382;28;20057;-62
2023/02/27 04:48:21;;;;;;;2.50;1.85;;;;;;;7.90;36.33;102580.59;4978262;28;20026;-62
2023/02/27 04:51:11;;;;;;;0.90;0.90;;;;;;;7.86;36.28;102579.84;4975812;28;20042;-62
2023/02/27 04:53:49;;;;;;;2.22;0.93;;;;;;;7.84;36.31;102584.41;4997524;28;20117;-62
2023/02/27 04:56:33;;;;;;;4.82;1.30;;;;;;;7.81;37.92;102589.00;5013909;28;20041;-62
2023/02/27 04:59:02;;;;;;;3.50;1.13;;;;;;;7.79;37.25;102585.53;5013626;28;20041;-61
2023/02/27 05:01:40;;;;;;;7.35;1.20;;;;;;;7.77;37.95;102593.59;5013880;28;20030;-61
2023/02/27 05:04:08;;;;;;;0.98;0.82;;;;;;;7.72;36.64;102589.41;5015132;28;20513;-62
2023/02/27 05:06:35;;;;;;;5.10;1.30;;;;;;;7.73;37.76;102599.16;5014309;28;20485;-61
2023/02/27 05:09:06;;;;;;;2.70;1.35;;;;;;;7.75;37.52;102602.59;5006950;28;20052;-61
2023/02/27 05:11:39;;;;;;;4.07;1.23;;;;;;;7.71;37.00;102599.19;5023611;28;20535;-60
2023/02/27 05:14:30;;;;;;;2.72;1.27;;;;;;;7.69;37.01;102600.19;5029196;28;20053;-62
2023/02/27 05:17:02;;;;;;;1.67;1.55;;;;;;;7.68;36.83;102598.47;4994764;28;20038;-62
2023/02/27 05:19:30;;;;;;;1.58;1.00;;;;;;;7.67;36.47;102596.75;5013875;28;20041;-62
2023/02/27 05:22:08;;;;;;;4.88;1.17;;;;;;;7.66;37.16;102601.19;5013642;28;20498;-62
2023/02/27 05:24:48;;;;;;;4.65;1.30;;;;;;;7.65;37.03;102598.63;5013382;28;20026;-62
2023/02/27 05:27:16;;;;;;;1.38;1.17;;;;;;;7.62;36.69;102595.13;5014920;28;20084;-62
2023/02/27 05:29:45;;;;;;;5.05;1.20;;;;;;;7.61;37.12;102593.41;5013715;28;20045;-62
2023/02/27 05:32:51;;;;;;;1.38;1.10;;;;;;;7.61;37.70;102595.22;5014241;28;20033;-61
2023/02/27 05:35:25;;;;;;;3.10;1.20;;;;;;;7.60;37.23;102598.78;4957714;28;20067;-62
2023/02/27 05:37:58;;;;;;;6.13;1.42;;;;;;;7.56;37.39;102592.75;4996561;28;20030;-61
2023/02/27 05:40:28;;;;;;;7.32;1.42;;;;;;;7.57;36.93;102597.13;4996541;28;20034;-61
2023/02/27 05:42:59;;;;;;;1.77;1.50;;;;;;;7.56;37.46;102594.53;5013184;28;20084;-61
2023/02/27 05:45:28;;;;;;;3.10;1.33;;;;;;;7.53;37.79;102603.56;4996489;28;20028;-62
2023/02/27 05:48:07;;;;;;;2.90;1.60;;;;;;;7.52;38.05;102599.13;4996843;28;20025;-61
2023/02/27 05:50:35;;;;;;;5.63;1.92;;;;;;;7.50;36.56;102603.69;4996434;28;20056;-62
2023/02/27 05:53:05;;;;;;;4.15;1.77;;;;;;;7.48;36.98;102602.84;4996430;28;20107;-61
2023/02/27 05:55:35;;;;;;;5.45;1.35;;;;;;;7.50;37.91;102611.69;5012738;28;20092;-62
2023/02/27 05:58:25;;;;;;;1.88;1.00;;;;;;;7.48;37.63;102602.00;4996413;28;20125;-62
2023/02/27 06:01:02;;;;;;;4.55;1.20;;;;;;;7.44;36.76;102606.59;5013779;28;20040;-61
2023/02/27 06:03:29;;;;;;;5.85;1.33;;;;;;;7.35;38.47;102599.00;5012548;28;20029;-61
2023/02/27 06:05:57;;;;;;;5.65;1.65;;;;;;;7.41;36.95;102628.06;4996517;28;20057;-62
2023/02/27 06:08:22;;;;;;;3.63;2.15;;;;;;;7.41;37.45;102633.38;5012431;28;20057;-61
2023/02/27 06:10:51;;;;;;;7.22;2.28;;;;;;;7.37;36.84;102615.78;4996132;28;20501;-61
2023/02/27 06:13:17;;;;;;;5.05;2.17;;;;;;;7.39;37.15;102629.94;5013690;28;20034;-62
2023/02/27 06:15:43;;;;;;;8.50;1.80;;;;;;;7.39;38.59;102629.94;4996112;28;20041;-61
2023/02/27 06:18:10;;;;;;;4.15;1.40;;;;;;;7.38;36.96;102636.19;5013377;28;20024;-61
2023/02/27 06:20:35;;;;;;;5.05;1.90;;;;;;;7.38;38.38;102638.84;5012392;28;20417;-62
2023/02/27 06:23:01;;;;;;;6.18;1.40;;;;;;;7.34;38.17;102637.22;5012220;28;20034;-62
2023/02/27 06:25:26;;;;;;;5.05;1.95;;;;;;;7.35;37.71;102649.63;4979771;28;20038;-62
2023/02/27 06:27:51;;;;;;;10.00;2.13;;;;;;;7.34;37.71;102642.56;5013292;28;20504;-62
2023/02/27 06:30:17;;;;;;;1.20;1.10;;;;;;;7.36;38.61;102646.06;4995871;28;20030;-63
2023/02/27 06:32:42;;;;;;;2.60;1.65;;;;;;;7.36;36.94;102651.38;5013941;28;20026;-61
2023/02/27 06:35:08;;;;;;;7.07;1.33;;;;;;;7.37;37.91;102653.09;4979244;28;20045;-62
2023/02/27 06:37:34;;;;;;;6.38;1.80;;;;;;;7.37;36.93;102650.44;4979570;28;20045;-61
2023/02/27 06:39:59;;;;;;;2.80;1.98;;;;;;;7.38;38.02;102654.84;5011847;28;20054;-62
2023/02/27 06:42:24;;;;;;;3.38;1.90;;;;;;;7.38;37.90;102660.16;5011957;28;20227;-61
2023/02/27 06:44:50;;;;;;;3.40;1.40;;;;;;;7.40;37.26;102660.97;5012394;28;20079;-61
2023/02/27 06:47:15;;;;;;;5.05;1.90;;;;;;;7.45;38.03;102666.13;5011813;28;20506;-61
2023/02/27 06:49:41;;;;;;;6.53;1.70;;;;;;;7.52;38.11;102663.13;5011788;28;20095;-62
2023/02/27 06:52:06;;;;;;;7.75;2.00;;;;;;;7.60;38.31;102666.34;5011799;28;20516;-61
2023/02/27 06:54:32;;;;;;;3.72;1.83;;;;;;;7.70;37.38;102655.28;5011617;28;20172;-62
2023/02/27 06:56:58;;;;;;;4.60;2.17;;;;;;;7.81;38.56;102663.69;5013560;28;20037;-62
2023/02/27 06:59:23;;;;;;;8.05;1.80;;;;;;;7.90;37.51;102665.97;4995231;28;20038;-62
2023/02/27 07:01:49;;;;;;;1.23;1.17;;;;;;;8.00;37.80;102669.94;5013168;28;20049;-61
2023/02/27 07:04:14;;;;;;;7.00;2.50;;;;;;;8.12;38.52;102666.75;4995523;28;20064;-61
2023/02/27 07:06:40;;;;;;;3.80;2.00;;;;;;;8.22;37.18;102665.38;5011999;28;20038;-61
2023/02/27 07:09:05;;;;;;;3.03;1.67;;;;;;;8.36;36.99;102673.69;4995757;28;20041;-62
2023/02/27 07:11:31;;;;;;;9.05;1.88;;;;;;;8.49;38.23;102687.31;4995319;28;20129;-61
2023/02/27 07:13:56;;;;;;;2.53;1.70;;;;;;;8.61;37.03;102690.31;4979243;28;20085;-61
2023/02/27 07:16:22;;;;;;;5.18;1.98;;;;;;;8.75;37.93;102693.22;5012857;28;20080;-62
2023/02/27 07:18:47;;;;;;;3.75;1.80;;;;;;;8.86;36.96;102690.03;5011703;28;20040;-62
2023/02/27 07:21:14;;;;;;;5.63;2.22;;;;;;;9.02;37.86;102700.84;4995794;28;20113;-62
2023/02/27 07:23:40;;;;;;;3.22;1.80;;;;;;;9.14;37.22;102700.25;5012880;28;20103;-62
2023/02/27 07:26:05;;;;;;;6.28;1.92;;;;;;;9.26;37.64;102691.66;5012950;28;20568;-62
2023/02/27 07:28:30;;;;;;;5.03;1.58;;;;;;;9.38;37.49;102698.22;4978758;28;20057;-62
2023/02/27 07:30:56;;;;;;;1.73;1.23;;;;;;;9.50;37.13;102690.44;5016397;28;20034;-62
2023/02/27 07:33:21;;;;;;;4.70;2.65;;;;;;;9.62;37.18;102692.50;5015394;28;20456;-62
2023/02/27 07:35:47;;;;;;;5.38;2.00;;;;;;;9.70;36.87;102695.66;5017156;28;20092;-62
2023/02/27 07:38:12;;;;;;;5.13;1.80;;;;;;;9.83;37.42;102710.13;5015293;28;20415;-62
2023/02/27 07:40:37;;;;;;;3.40;1.52;;;;;;;9.92;36.97;102701.66;4998842;28;20096;-62
2023/02/27 07:43:03;;;;;;;9.50;2.15;;;;;;;10.05;37.06;102701.03;4998663;28;20456;-62
2023/02/27 07:45:28;;;;;;;4.13;2.38;;;;;;;10.16;37.07;102704.88;4998662;28;20062;-62
2023/02/27 07:47:54;;;;;;;2.05;1.75;;;;;;;10.28;37.19;102698.00;4999012;28;20489;-62
2023/02/27 07:50:19;;;;;;;6.10;1.73;;;;;;;10.43;37.21;102707.91;4998451;28;20567;-62
2023/02/27 07:52:45;;;;;;;4.45;2.00;;;;;;;10.54;37.45;102705.53;5015036;28;20042;-62
2023/02/27 07:55:12;;;;;;;4.45;2.08;;;;;;;10.69;37.14;102710.03;4998758;28;20136;-62
2023/02/27 07:57:37;;;;;;;4.95;2.05;;;;;;;10.81;37.06;102695.97;4998473;28;20042;-62
2023/02/27 08:00:05;;;;;;;4.85;2.13;;;;;;;10.98;37.00;102701.25;4999035;28;20079;-62
2023/02/27 08:02:31;;;;;;;3.67;2.08;;;;;;;11.10;37.09;102703.28;5014918;28;20038;-62
2023/02/27 08:04:57;;;;;;;2.40;1.73;;;;;;;11.27;36.69;102691.59;4998474;28;20064;-62
2023/02/27 08:07:22;;;;;;;5.10;2.80;;;;;;;11.47;36.75;102699.31;5014811;28;20387;-62
2023/02/27 08:09:47;;;;;;;2.95;2.13;;;;;;;11.64;36.45;102699.19;4998346;28;20034;-62
2023/02/27 08:12:13;;;;;;;4.20;2.08;;;;;;;11.81;36.77;102708.97;4998721;28;20065;-62
2023/02/27 08:14:38;;;;;;;6.53;1.80;;;;;;;11.98;36.48;102711.53;5015828;28;20038;-62
2023/02/27 08:17:04;;;;;;;8.95;1.98;;;;;;;12.15;36.16;102713.19;4998288;28;20175;-63
2023/02/27 08:19:29;;;;;;;2.47;1.88;;;;;;;12.31;35.72;102702.41;4998080;28;20045;-62
2023/02/27 08:21:54;;;;;;;5.97;1.80;;;;;;;12.50;36.42;102711.03;4998194;28;20037;-62
2023/02/27 08:24:20;;;;;;;6.57;2.67;;;;;;;12.65;35.60;102705.56;4997903;28;20037;-62
2023/02/27 08:26:46;;;;;;;7.38;1.90;;;;;;;12.85;35.37;102707.84;4998265;28;20034;-62
2023/02/27 08:29:11;;;;;;;3.63;2.13;;;;;;;13.04;36.36;102703.97;5014199;28;20092;-62
2023/02/27 08:31:36;;;;;;;3.30;2.38;;;;;;;13.23;35.80;102699.19;5015535;28;20056;-62
2023/02/27 08:34:02;;;;;;;4.10;2.55;;;;;;;13.41;36.10;102698.81;5015438;28;20038;-63
2023/02/27 08:36:27;;;;;;;4.82;1.85;;;;;;;13.61;35.08;102696.63;5015621;28;20045;-62
2023/02/27 08:38:52;;;;;;;5.15;2.17;;;;;;;13.77;35.48;102700.00;5014575;28;20112;-62
2023/02/27 08:41:18;;;;;;;4.28;2.30;;;;;;;13.95;35.73;102705.03;4996847;28;20041;-62
2023/02/27 08:43:43;;;;;;;3.22;1.73;;;;;;;14.08;35.77;102702.34;4997476;28;20038;-62
2023/02/27 08:46:09;;;;;;;5.82;2.28;;;;;;;14.24;35.53;102703.00;5014134;28;20042;-62
2023/02/27 08:48:34;;;;;;;4.18;2.22;;;;;;;14.41;35.49;102696.44;5015107;28;20445;-62
2023/02/27 08:50:59;;;;;;;4.65;2.33;;;;;;;14.62;34.00;102704.88;5014233;28;20425;-62
2023/02/27 08:53:25;;;;;;;6.32;2.25;;;;;;;14.79;35.28;102701.84;5015122;28;20513;-62
2023/02/27 08:55:51;;;;;;;4.90;2.38;;;;;;;14.95;35.09;102710.53;4997341;28;20046;-62
2023/02/27 08:58:17;;;;;;;3.67;2.40;;;;;;;15.11;34.06;102708.44;5015241;28;20038;-62
2023/02/27 09:00:42;;;;;;;6.78;2.28;;;;;;;15.27;33.79;102698.22;5014994;28;20033;-62
2023/02/27 09:03:08;;;;;;;7.38;2.30;;;;;;;15.46;34.46;102708.53;4997648;28;20034;-62
2023/02/27 09:05:34;;;;;;;3.58;1.80;;;;;;;15.64;34.71;102713.44;4997246;28;20520;-62
2023/02/27 09:08:00;;;;;;;5.25;2.13;;;;;;;15.82;33.69;102711.19;4997247;28;20049;-62
2023/02/27 09:10:26;;;;;;;2.78;2.00;;;;;;;16.02;34.40;102706.97;4997273;28;20038;-62
2023/02/27 09:12:52;;;;;;;4.75;2.00;;;;;;;16.17;32.95;102708.47;4997387;28;20030;-62
2023/02/27 09:15:18;;;;;;;5.50;2.40;;;;;;;16.27;33.01;102712.19;5014575;28;20516;-63
2023/02/27 09:17:43;;;;;;;3.70;1.88;;;;;;;16.37;33.63;102710.47;5013827;28;20393;-62
2023/02/27 09:20:10;;;;;;;3.15;1.50;;;;;;;16.49;33.13;102712.22;4997145;28;20160;-62
2023/02/27 09:22:35;;;;;;;4.20;2.13;;;;;;;16.60;32.83;102714.97;5016884;28;20601;-60
2023/02/27 09:25:01;;;;;;;4.00;2.17;;;;;;;16.77;32.88;102711.78;5016684;28;20114;-60
2023/02/27 09:27:27;;;;;;;4.15;1.80;;;;;;;16.95;32.66;102716.69;5015686;28;20030;-60
2023/02/27 09:29:54;;;;;;;5.10;1.80;;;;;;;17.12;31.79;102716.16;5014884;28;20040;-60
2023/02/27 09:32:21;;;;;;;10.00;1.80;;;;;;;17.28;32.82;102711.25;5014369;28;20117;-60
2023/02/27 09:34:46;;;;;;;6.25;1.92;;;;;;;17.49;32.51;102709.44;5013019;28;20038;-60
2023/02/27 09:37:12;;;;;;;8.48;2.03;;;;;;;17.68;32.16;102709.66;4996864;28;20062;-60
2023/02/27 09:39:37;;;;;;;6.75;2.25;;;;;;;18.06;31.77;102709.13;4980366;28;20037;-61
2023/02/27 09:42:10;;;;;;;6.53;2.25;;;;;;;18.71;31.96;102703.38;4996960;28;20030;-63
2023/02/27 09:44:35;;;;;;;3.00;1.90;;;;;;;20.52;29.42;102709.19;4996535;28;20042;-63
2023/02/27 09:47:03;;;;;;;9.07;2.50;;;;;;;21.92;28.25;102705.09;4996407;28;20402;-61
2023/02/27 09:49:33;;;;;;;3.13;1.58;;;;;;;21.23;28.73;102710.31;4993278;28;20054;-61
2023/02/27 09:51:59;;;;;;;4.85;1.92;;;;;;;21.04;29.03;102702.22;4976886;28;20038;-61
2023/02/27 09:54:30;;;;;;;8.32;1.85;;;;;;;21.13;29.10;102702.22;4944214;28;20096;-61
2023/02/27 09:57:02;;;;;;;3.65;1.40;;;;;;;21.32;29.22;102710.28;4961551;28;20049;-61
2023/02/27 09:59:35;;;;;;;3.83;1.50;;;;;;;21.52;28.63;102705.53;4976249;28;20030;-61
2023/02/27 10:02:17;;;;;;;3.78;2.08;;;;;;;21.81;28.97;102699.84;4976736;28;20046;-61
2023/02/27 10:05:02;;;;;;;2.63;1.85;;;;;;;22.14;27.97;102703.75;4992934;28;20031;-61
2023/02/27 10:07:56;;;;;;;3.33;1.40;;;;;;;22.42;27.70;102692.50;4960617;28;20057;-61
2023/02/27 10:10:49;;;;;;;6.07;1.40;;;;;;;22.83;27.36;102698.25;4976885;28;20065;-63
2023/02/27 10:13:32;;;;;;;4.53;0.75;;;;;;;23.17;27.65;102696.34;4976600;28;20034;-62
2023/02/27 10:15:58;;;;;;;1.35;0.93;;;;;;;23.25;27.36;102688.16;4994026;28;20039;-62
2023/02/27 10:18:25;;;;;;;2.72;1.30;;;;;;;23.29;26.46;102681.31;4960312;28;20207;-63
2023/02/27 10:20:55;;;;;;;1.83;0.90;;;;;;;23.40;26.43;102686.50;4994181;28;20030;-63
2023/02/27 10:23:36;;;;;;;3.00;1.13;;;;;;;23.69;26.87;102686.91;4960490;28;20617;-63
2023/02/27 10:26:02;;;;;;;1.83;0.85;;;;;;;23.91;26.75;102684.50;4976424;28;20182;-64
2023/02/27 10:28:31;;;;;;;3.92;1.10;;;;;;;24.03;25.58;102677.66;4976384;28;20070;-63
2023/02/27 10:30:59;;;;;;;3.58;0.93;;;;;;;24.18;25.49;102690.50;4976241;28;20026;-62
2023/02/27 10:33:31;;;;;;;3.75;1.02;;;;;;;24.26;25.73;102689.66;4960127;28;20477;-63
2023/02/27 10:35:56;;;;;;;2.58;0.75;;;;;;;24.40;25.90;102688.94;4994238;28;20081;-63
2023/02/27 10:38:31;;;;;;;1.95;0.80;;;;;;;24.58;25.40;102689.59;4992597;28;20383;-63
2023/02/27 10:40:56;;;;;;;2.78;1.00;;;;;;;24.71;25.48;102686.28;4976290;28;20041;-63
2023/02/27 10:43:22;;;;;;;0.70;0.50;;;;;;;24.77;25.50;102686.44;4976323;28;20026;-63
2023/02/27 10:45:48;;;;;;;2.00;0.95;;;;;;;24.80;25.10;102680.63;4976106;28;20113;-63
2023/02/27 10:48:13;;;;;;;3.95;0.80;;;;;;;24.78;25.01;102685.41;4992680;28;20482;-63
2023/02/27 10:50:42;;;;;;;2.10;0.73;;;;;;;24.81;24.91;102687.84;4981629;28;20134;-62
2023/02/27 10:53:17;;;;;;;3.20;0.82;;;;;;;24.46;24.90;102674.53;5012058;28;20025;-63
2023/02/27 10:55:47;;;;;;;2.15;0.95;;;;;;;24.68;24.53;102682.00;5011864;28;20034;-63
2023/02/27 10:58:19;;;;;;;1.33;1.10;;;;;;;24.89;24.69;102676.84;5011850;28;20029;-63
2023/02/27 11:00:58;;;;;;;2.20;0.88;;;;;;;25.03;24.62;102677.13;5011922;28;20077;-63
2023/02/27 11:03:38;;;;;;;4.57;1.10;;;;;;;25.19;24.18;102675.13;4995479;28;20026;-63
2023/02/27 11:06:05;;;;;;;2.35;1.10;;;;;;;25.24;24.36;102675.44;5000045;28;20022;-63
2023/02/27 11:08:32;;;;;;;8.02;1.45;;;;;;;25.39;24.33;102668.16;5016951;28;20470;-63
2023/02/27 11:11:09;;;;;;;2.58;1.58;;;;;;;25.20;24.46;102674.13;4999377;28;20404;-63
2023/02/27 11:13:40;;;;;;;6.47;2.03;;;;;;;25.39;24.38;102667.31;5015792;28;20033;-63
2023/02/27 11:16:17;;;;;;;2.80;1.60;;;;;;;25.54;24.13;102664.66;4999278;28;20034;-63
2023/02/27 11:18:47;;;;;;;3.95;1.80;;;;;;;25.63;23.92;102656.16;5015743;28;20032;-63
2023/02/27 11:21:23;;;;;;;4.30;1.80;;;;;;;25.72;24.17;102655.06;4999870;28;20398;-63
2023/02/27 11:23:58;;;;;;;3.20;1.60;;;;;;;25.79;23.49;102658.81;5015510;28;20061;-63
2023/02/27 11:26:31;;;;;;;4.03;1.83;;;;;;;25.81;23.79;102659.47;5016799;28;20121;-63
2023/02/27 11:29:07;;;;;;;5.65;1.98;;;;;;;25.78;23.40;102659.84;5015580;28;20030;-63
2023/02/27 11:31:35;;;;;;;2.72;1.52;;;;;;;25.76;23.57;102652.81;5015490;28;20080;-63
2023/02/27 11:34:00;;;;;;;6.28;3.10;;;;;;;25.71;23.79;102649.78;5015408;28;20033;-62
2023/02/27 11:36:43;;;;;;;5.38;1.52;;;;;;;24.68;24.22;102651.84;5015380;28;20042;-63
2023/02/27 11:39:19;;;;;;;;;;;;;;;24.96;24.12;102656.94;4999889;28;20029;-63
2023/02/27 11:41:45;;;;;;;4.10;1.65;;;;;;;25.18;24.09;102656.97;4998943;28;19920;-64
2023/02/27 11:44:15;;;;;;;5.80;2.03;;;;;;;25.23;23.80;102645.47;4998832;28;20034;-63
2023/02/27 11:46:41;;;;;;;8.70;1.80;;;;;;;24.66;24.45;102648.44;5015294;28;20029;-63
2023/02/27 11:49:25;;;;;;;4.03;2.22;;;;;;;23.98;24.18;102648.03;4998619;28;20416;-64